Time;durP1;ratioP1;P1;durP2;ratioP2;P2;SDS_P1;SDS_P2;PMS_P1;PMS_P2;Temp;Humidity;BMP_temperature;BMP_pressure;BME280_temperature;BME280_humidity;BME280_pressure;Samples;Min_cycle;Max_cycle;Signal;HPM_P1;HPM_P2
2022/07/12 00:04:06;;;;;;;11.00;8.50;;;;;;;15.64;60.98;100695.41;10468052;28;20121;-68
2022/07/12 00:09:08;;;;;;;10.38;8.27;;;;;;;15.69;61.04;100694.16;10470501;28;20056;-66
2022/07/12 00:14:09;;;;;;;9.27;8.23;;;;;;;15.74;60.59;100694.66;10451542;28;20041;-67
2022/07/12 00:19:11;;;;;;;9.85;7.88;;;;;;;15.72;60.49;100698.34;10469059;28;20178;-67
2022/07/12 00:24:13;;;;;;;9.63;8.30;;;;;;;15.72;60.30;100690.44;10470105;28;20088;-66
2022/07/12 00:29:15;;;;;;;9.52;8.13;;;;;;;15.66;60.24;100683.81;10468944;28;20048;-67
2022/07/12 00:34:16;;;;;;;10.75;9.65;;;;;;;15.50;60.85;100687.59;10451647;28;20485;-67
2022/07/12 00:39:18;;;;;;;11.35;9.10;;;;;;;15.39;60.65;100685.66;10470133;28;20048;-66
2022/07/12 00:44:20;;;;;;;10.98;9.32;;;;;;;15.16;60.79;100686.38;10439904;28;20163;-67
2022/07/12 00:49:23;;;;;;;10.05;8.27;;;;;;;15.23;61.13;100690.25;10469367;28;20548;-67
2022/07/12 00:54:25;;;;;;;9.00;8.07;;;;;;;15.23;61.01;100687.63;10464673;28;21101;-67
2022/07/12 00:59:27;;;;;;;8.98;7.88;;;;;;;15.19;60.43;100681.72;10468086;28;20078;-66
2022/07/12 01:04:29;;;;;;;9.48;7.82;;;;;;;15.14;60.63;100675.09;10468807;28;20084;-66
2022/07/12 01:09:32;;;;;;;8.95;7.82;;;;;;;15.05;60.95;100670.41;10465724;28;20044;-67
2022/07/12 01:14:34;;;;;;;10.57;8.70;;;;;;;15.03;61.38;100670.53;10469043;28;20098;-67
2022/07/12 01:19:37;;;;;;;8.75;7.82;;;;;;;15.01;61.55;100669.78;10465624;28;20066;-66
2022/07/12 01:24:39;;;;;;;10.48;9.23;;;;;;;14.83;61.58;100675.41;10464966;28;20094;-67
2022/07/12 01:29:40;;;;;;;10.02;7.93;;;;;;;14.86;61.53;100683.13;10448424;28;20084;-67
2022/07/12 01:34:43;;;;;;;10.07;8.85;;;;;;;14.80;61.02;100679.09;10464463;28;20147;-67
2022/07/12 01:39:46;;;;;;;11.00;8.25;;;;;;;14.71;61.56;100682.34;10465747;28;20461;-66
2022/07/12 01:44:52;;;;;;;9.20;8.30;;;;;;;14.72;61.68;100672.63;10462045;28;20167;-67
2022/07/12 01:49:54;;;;;;;9.57;8.38;;;;;;;14.71;61.26;100673.59;10448090;28;20131;-66
2022/07/12 01:54:57;;;;;;;13.23;7.90;;;;;;;14.64;61.38;100670.50;10447661;28;20079;-66
2022/07/12 02:00:01;;;;;;;9.75;8.55;;;;;;;14.55;61.83;100663.22;10463132;28;20148;-67
2022/07/12 02:05:04;;;;;;;9.88;7.75;;;;;;;14.49;61.68;100666.25;10471793;28;20052;-66
2022/07/12 02:10:07;;;;;;;9.88;8.90;;;;;;;14.46;61.64;100661.13;10455848;28;20088;-67
2022/07/12 02:15:10;;;;;;;12.35;9.18;;;;;;;14.40;61.95;100674.69;10472894;28;20048;-66
2022/07/12 02:20:12;;;;;;;10.50;8.05;;;;;;;14.38;62.52;100677.41;10473193;28;20141;-67
2022/07/12 02:25:14;;;;;;;9.27;8.27;;;;;;;14.41;62.59;100677.19;10472147;28;20057;-66
2022/07/12 02:30:16;;;;;;;10.48;8.85;;;;;;;14.48;61.87;100669.75;10469550;28;20496;-68
2022/07/12 02:35:17;;;;;;;8.50;7.47;;;;;;;14.45;61.61;100677.88;10474081;28;20049;-67
2022/07/12 02:45:39;;;;;;;9.38;7.68;;;;;;;14.25;61.45;100684.38;10473785;28;20079;-68
2022/07/12 02:50:41;;;;;;;10.95;8.35;;;;;;;14.12;61.23;100698.41;10470409;28;20916;-68
2022/07/12 02:55:43;;;;;;;10.88;9.77;;;;;;;13.86;61.65;100689.47;10453000;28;20044;-67
2022/07/12 03:00:44;;;;;;;11.02;8.82;;;;;;;13.71;62.33;100696.53;10471064;28;20171;-67
2022/07/12 03:05:46;;;;;;;8.10;7.30;;;;;;;13.69;62.19;100702.81;10461778;28;20141;-67
2022/07/12 03:10:48;;;;;;;8.93;8.00;;;;;;;13.81;61.97;100703.84;10459594;28;20090;-68
2022/07/12 03:15:50;;;;;;;9.60;7.75;;;;;;;13.76;61.91;100709.38;10445252;28;20056;-67
2022/07/12 03:20:51;;;;;;;10.10;7.60;;;;;;;13.69;61.89;100715.97;10464817;28;20102;-67
2022/07/12 03:25:54;;;;;;;8.55;7.65;;;;;;;13.63;62.09;100711.06;10464011;28;20094;-68
2022/07/12 03:30:56;;;;;;;11.40;8.60;;;;;;;13.57;62.60;100719.31;10462878;28;20554;-68
2022/07/12 03:35:59;;;;;;;8.75;7.63;;;;;;;13.52;62.26;100724.00;10464622;28;20505;-66
2022/07/12 03:41:01;;;;;;;10.18;8.48;;;;;;;13.58;62.41;100713.13;10460943;28;20139;-67
2022/07/12 03:46:02;;;;;;;8.52;7.65;;;;;;;13.63;61.79;100717.19;10469178;28;20111;-67
2022/07/12 03:51:04;;;;;;;8.77;7.88;;;;;;;13.70;61.58;100722.91;10470974;28;20052;-69
2022/07/12 03:56:06;;;;;;;9.65;8.02;;;;;;;13.69;61.38;100715.97;10471129;28;20083;-67
2022/07/12 04:01:08;;;;;;;10.65;6.90;;;;;;;13.77;61.35;100714.56;10469900;28;20076;-67
2022/07/12 04:06:10;;;;;;;11.23;7.20;;;;;;;13.75;61.68;100715.59;10470768;28;20123;-67
2022/07/12 04:11:12;;;;;;;8.23;7.43;;;;;;;13.84;61.13;100725.53;10470566;28;20131;-67
2022/07/12 04:16:14;;;;;;;7.95;7.15;;;;;;;13.96;61.04;100723.97;10453764;28;20141;-68
2022/07/12 04:21:16;;;;;;;8.73;7.05;;;;;;;14.95;59.61;100717.59;10452042;28;20056;-67
2022/07/12 04:26:18;;;;;;;7.35;6.10;;;;;;;17.36;54.22;100718.09;10470440;28;20052;-67
2022/07/12 04:31:19;;;;;;;7.47;5.53;;;;;;;19.34;49.24;100716.25;10468032;28;20525;-68
2022/07/12 04:36:21;;;;;;;6.90;5.25;;;;;;;20.56;46.09;100706.53;10470661;28;20048;-66
2022/07/12 04:41:23;;;;;;;5.78;4.43;;;;;;;21.76;43.40;100706.00;10469754;28;20308;-67
2022/07/12 04:46:25;;;;;;;6.60;4.60;;;;;;;22.95;40.78;100719.34;10471014;28;20110;-68
2022/07/12 04:51:27;;;;;;;5.90;4.60;;;;;;;24.43;38.16;100712.09;10470508;28;20044;-68
2022/07/12 04:56:29;;;;;;;4.70;4.10;;;;;;;25.62;35.92;100715.97;10465137;28;20175;-68
2022/07/12 05:01:32;;;;;;;5.03;4.13;;;;;;;25.90;34.98;100725.28;10469196;28;21062;-69
2022/07/12 05:06:34;;;;;;;6.78;3.90;;;;;;;26.12;34.39;100720.25;10469101;28;20118;-67
2022/07/12 05:11:35;;;;;;;4.45;3.75;;;;;;;26.90;33.41;100721.88;10469728;28;20143;-67
2022/07/12 05:16:37;;;;;;;5.00;4.05;;;;;;;27.75;31.76;100726.09;10465692;28;20053;-67
2022/07/12 05:21:41;;;;;;;4.65;3.78;;;;;;;27.56;31.71;100731.16;10468062;28;20154;-67
2022/07/12 05:26:43;;;;;;;4.82;3.85;;;;;;;27.28;32.23;100731.69;10430429;28;20843;-67
2022/07/12 05:31:45;;;;;;;5.93;3.95;;;;;;;27.01;32.12;100732.22;10461322;28;20163;-68
2022/07/12 05:36:47;;;;;;;5.13;4.22;;;;;;;24.73;35.52;100736.44;10459149;28;20147;-67
2022/07/12 05:41:49;;;;;;;6.65;5.90;;;;;;;22.56;39.24;100748.03;10446871;28;20044;-67
2022/07/12 05:46:51;;;;;;;7.90;5.40;;;;;;;21.30;42.28;100751.16;10449142;28;20489;-68
2022/07/12 05:57:30;;;;;;;7.20;5.97;;;;;;;20.27;45.01;100768.38;10407669;28;20084;-67
2022/07/12 06:02:32;;;;;;;7.75;6.93;;;;;;;19.95;46.06;100772.97;10465339;28;20163;-67
2022/07/12 06:07:34;;;;;;;7.13;5.88;;;;;;;19.87;46.92;100769.28;10466566;28;20063;-66
2022/07/12 06:12:37;;;;;;;7.45;6.25;;;;;;;19.54;47.56;100786.22;10467079;28;20409;-67
2022/07/12 06:17:39;;;;;;;7.70;5.90;;;;;;;19.39;48.20;100796.28;10467650;28;20063;-66
2022/07/12 06:22:41;;;;;;;9.40;5.90;;;;;;;19.51;48.40;100797.06;10466009;28;20096;-67
2022/07/12 06:27:42;;;;;;;8.55;5.78;;;;;;;19.25;49.34;100801.03;10445428;28;20552;-67
2022/07/12 06:32:46;;;;;;;8.93;5.90;;;;;;;19.42;49.38;100793.38;10464617;28;20051;-67
2022/07/12 06:37:48;;;;;;;7.43;6.13;;;;;;;19.56;49.33;100797.56;10462848;28;20036;-67
2022/07/12 06:42:50;;;;;;;8.50;6.53;;;;;;;19.71;49.13;100787.44;10462242;28;20127;-67
2022/07/12 06:47:53;;;;;;;6.57;5.13;;;;;;;19.53;49.80;100788.97;10440183;28;20489;-67
2022/07/12 06:52:54;;;;;;;5.72;4.88;;;;;;;19.54;49.63;100788.03;10459700;28;20353;-67
2022/07/12 06:57:57;;;;;;;6.35;4.20;;;;;;;19.94;49.41;100784.56;10458172;28;20080;-68
2022/07/12 07:02:59;;;;;;;7.18;3.95;;;;;;;19.89;49.81;100784.09;10465318;28;20420;-74
2022/07/12 07:08:01;;;;;;;5.88;3.67;;;;;;;20.16;49.18;100789.72;10448468;28;20069;-74
2022/07/12 07:13:10;;;;;;;5.45;3.28;;;;;;;20.91;48.05;100774.22;10445253;28;20226;-73
2022/07/12 07:18:12;;;;;;;6.28;3.17;;;;;;;21.47;46.67;100787.75;10465867;28;20525;-73
2022/07/12 07:23:16;;;;;;;5.00;3.47;;;;;;;22.28;45.10;100781.00;10475300;28;20079;-76
2022/07/12 07:28:18;;;;;;;5.03;3.15;;;;;;;23.32;43.74;100771.59;10475172;28;20271;-74
2022/07/12 07:33:40;;;;;;;4.25;3.10;;;;;;;24.97;40.88;100765.09;10460263;28;20408;-74
2022/07/12 07:38:41;;;;;;;5.13;2.90;;;;;;;26.16;38.47;100767.16;10455890;28;20584;-77
2022/07/12 07:43:43;;;;;;;5.25;2.90;;;;;;;27.54;36.21;100758.22;10475053;28;20092;-77
2022/07/12 07:48:45;;;;;;;4.88;3.00;;;;;;;28.49;34.19;100741.25;10472968;28;20052;-74
2022/07/12 07:53:47;;;;;;;4.70;2.92;;;;;;;28.02;34.79;100748.84;10466052;28;20454;-77
2022/07/12 07:58:48;;;;;;;4.07;2.70;;;;;;;28.17;34.11;100752.41;10453405;28;20158;-74
2022/07/12 08:03:50;;;;;;;4.63;3.15;;;;;;;27.97;33.91;100749.41;10472777;28;20187;-76
2022/07/12 08:08:52;;;;;;;4.68;3.10;;;;;;;28.57;33.38;100757.31;10470879;28;20083;-76
2022/07/12 08:14:13;;;;;;;4.07;2.10;;;;;;;29.15;32.63;100760.91;10459032;28;20048;-73
2022/07/12 08:19:15;;;;;;;9.75;2.67;;;;;;;29.22;31.94;100754.53;10471897;28;20154;-75
2022/07/12 08:24:17;;;;;;;3.30;1.92;;;;;;;29.62;31.15;100756.59;10473029;28;20135;-76
2022/07/12 08:29:18;;;;;;;4.25;2.03;;;;;;;29.42;31.07;100754.78;10473138;28;20075;-73
2022/07/12 08:34:20;;;;;;;4.22;1.80;;;;;;;28.86;31.18;100754.59;10472631;28;20574;-73
2022/07/12 08:39:22;;;;;;;3.20;1.77;;;;;;;29.70;29.93;100750.25;10453855;28;20051;-76
2022/07/12 08:44:24;;;;;;;3.03;1.50;;;;;;;29.37;29.68;100746.41;10454753;28;20084;-77
2022/07/12 08:49:25;;;;;;;3.97;1.58;;;;;;;29.44;29.28;100741.94;10471665;28;20083;-77
2022/07/12 08:54:38;;;;;;;2.60;1.50;;;;;;;29.33;29.47;100739.72;10470822;28;20112;-77
2022/07/12 08:59:47;;;;;;;2.60;1.50;;;;;;;29.51;29.44;100746.34;10471897;28;20087;-76
2022/07/12 09:05:06;;;;;;;2.92;1.63;;;;;;;29.42;29.53;100754.78;10441113;28;20080;-76
2022/07/12 09:10:09;;;;;;;3.67;1.30;;;;;;;29.31;30.09;100745.31;10471580;28;20497;-75
2022/07/12 09:15:13;;;;;;;1.75;1.35;;;;;;;29.60;29.17;100742.47;10470499;28;20061;-77
2022/07/12 09:20:15;;;;;;;2.58;1.50;;;;;;;29.52;29.63;100737.22;10452656;28;20106;-75
2022/07/12 09:25:18;;;;;;;3.88;1.52;;;;;;;28.99;30.09;100738.56;10470142;28;20098;-75
2022/07/12 09:30:23;;;;;;;2.50;1.40;;;;;;;28.83;30.25;100736.06;10470242;28;20068;-77
2022/07/12 09:40:46;;;;;;;1.95;1.40;;;;;;;29.56;29.93;100724.22;10470737;28;20067;-77
2022/07/12 09:45:49;;;;;;;3.17;1.73;;;;;;;29.13;29.90;100736.84;10451833;28;20127;-76
2022/07/12 09:50:51;;;;;;;3.33;1.50;;;;;;;28.66;30.62;100734.66;10468821;28;20044;-75
2022/07/12 09:55:54;;;;;;;2.75;1.50;;;;;;;28.66;30.33;100728.44;10469848;28;20135;-77
2022/07/12 10:01:02;;;;;;;3.20;1.42;;;;;;;28.45;30.34;100747.19;10469143;28;20062;-74
2022/07/12 10:06:04;;;;;;;2.03;1.30;;;;;;;28.38;30.43;100739.03;10468442;28;20175;-76
2022/07/12 10:11:06;;;;;;;5.65;1.55;;;;;;;28.88;29.81;100727.47;10466429;28;20091;-76
2022/07/12 10:16:10;;;;;;;2.00;1.27;;;;;;;29.22;29.64;100735.69;10434546;28;20106;-77
2022/07/12 10:21:21;;;;;;;1.98;1.25;;;;;;;28.84;29.85;100742.31;10449613;28;20059;-73
2022/07/12 10:26:25;;;;;;;3.13;1.30;;;;;;;28.67;30.38;100741.69;10467422;28;20084;-73
2022/07/12 10:31:40;;;;;;;2.33;1.20;;;;;;;28.56;30.37;100738.66;10468735;28;20068;-73
2022/07/12 10:36:54;;;;;;;2.95;1.38;;;;;;;28.50;30.28;100737.56;10468576;28;20058;-73
2022/07/12 10:42:17;;;;;;;3.45;1.20;;;;;;;28.45;31.18;100742.66;10452900;28;20057;-75
2022/07/12 10:47:24;;;;;;;3.92;1.40;;;;;;;27.85;32.11;100737.44;10450640;28;20049;-75
2022/07/12 10:52:27;;;;;;;3.22;1.40;;;;;;;27.55;32.80;100734.84;10467114;28;20052;-73
2022/07/12 10:57:50;;;;;;;2.70;1.50;;;;;;;26.93;32.85;100729.59;10457401;28;20553;-74
2022/07/12 11:02:55;;;;;;;3.95;1.30;;;;;;;27.16;32.84;100719.72;10476089;28;20060;-73
2022/07/12 11:07:57;;;;;;;3.28;1.25;;;;;;;27.04;32.95;100722.97;10475831;28;20143;-73
2022/07/12 11:13:00;;;;;;;2.25;1.20;;;;;;;27.23;32.16;100719.84;10475350;28;20052;-77
2022/07/12 11:18:02;;;;;;;2.92;1.50;;;;;;;27.14;32.85;100704.75;10474013;28;20562;-77
2022/07/12 11:23:05;;;;;;;2.28;1.10;;;;;;;27.43;32.37;100703.03;10475291;28;20534;-74
2022/07/12 11:28:10;;;;;;;2.30;1.30;;;;;;;27.37;32.49;100698.41;10475562;28;20960;-73
2022/07/12 11:33:12;;;;;;;2.25;1.40;;;;;;;27.44;32.54;100707.38;10475511;28;20080;-77
2022/07/12 11:38:23;;;;;;;2.70;1.20;;;;;;;27.13;32.24;100698.56;10475090;28;20140;-77
2022/07/12 11:43:25;;;;;;;2.35;1.20;;;;;;;26.92;33.03;100694.84;10475225;28;20048;-74
2022/07/12 11:48:27;;;;;;;1.98;1.35;;;;;;;27.09;32.50;100691.91;10474058;28;20061;-77
2022/07/12 11:53:30;;;;;;;3.30;1.30;;;;;;;26.81;32.85;100689.91;10457170;28;20052;-73
2022/07/12 11:58:33;;;;;;;1.05;1.00;;;;;;;26.88;32.34;100689.03;10474691;28;20138;-75
2022/07/12 12:03:43;;;;;;;2.42;1.20;;;;;;;26.90;32.67;100668.19;10474254;28;20569;-76
2022/07/12 12:08:47;;;;;;;2.58;1.30;;;;;;;27.15;32.44;100679.63;10473078;28;20819;-73
2022/07/12 12:13:56;;;;;;;3.60;1.20;;;;;;;27.05;31.90;100671.78;10473728;28;20057;-73
2022/07/12 12:19:00;;;;;;;2.20;1.20;;;;;;;27.13;32.04;100668.19;10455535;28;20056;-77
2022/07/12 12:24:10;;;;;;;3.58;1.30;;;;;;;27.33;31.88;100654.13;10472704;28;20063;-74
2022/07/12 12:29:11;;;;;;;3.10;1.30;;;;;;;27.32;32.15;100641.69;10473381;28;20500;-74
2022/07/12 12:34:14;;;;;;;2.70;1.23;;;;;;;27.44;31.53;100642.91;10469009;28;20570;-77
2022/07/12 12:39:30;;;;;;;1.25;0.98;;;;;;;27.49;31.37;100640.50;10469151;28;20052;-73
2022/07/12 12:44:33;;;;;;;1.13;1.00;;;;;;;27.64;31.06;100637.84;10449363;28;20220;-74
2022/07/12 12:49:51;;;;;;;2.10;1.00;;;;;;;27.96;30.66;100621.38;10470054;28;20084;-75
2022/07/12 12:54:58;;;;;;;1.17;0.90;;;;;;;28.10;30.47;100617.81;10452960;28;20057;-75
2022/07/12 13:00:00;;;;;;;1.35;0.98;;;;;;;27.98;30.02;100629.22;10471828;28;20139;-74
2022/07/12 13:05:01;;;;;;;1.70;1.00;;;;;;;27.69;29.75;100621.97;10466804;28;20083;-76
2022/07/12 13:10:03;;;;;;;0.90;0.90;;;;;;;27.83;29.38;100615.00;10468852;28;20087;-74
2022/07/12 13:15:07;;;;;;;5.22;1.20;;;;;;;28.16;29.64;100600.09;10463789;28;20139;-77
2022/07/12 13:20:09;;;;;;;2.95;1.05;;;;;;;28.05;29.43;100605.97;10452744;28;20259;-75
2022/07/12 13:25:13;;;;;;;3.33;1.10;;;;;;;27.96;29.30;100604.38;10463564;28;20048;-77
2022/07/12 13:30:15;;;;;;;2.28;1.00;;;;;;;28.21;29.53;100601.19;10465835;28;20123;-79
2022/07/12 13:35:17;;;;;;;1.38;1.10;;;;;;;28.21;29.89;100593.13;10446272;28;20141;-76
2022/07/12 13:40:22;;;;;;;1.45;1.00;;;;;;;28.05;29.56;100603.28;10443628;28;20400;-79
2022/07/12 13:45:25;;;;;;;1.75;1.00;;;;;;;28.34;29.31;100603.22;10469882;28;20056;-77
2022/07/12 13:50:27;;;;;;;3.30;1.42;;;;;;;28.60;29.16;100591.91;10469379;28;20139;-78
2022/07/12 13:55:33;;;;;;;3.72;1.10;;;;;;;28.83;28.53;100598.75;10469705;28;20493;-75
2022/07/12 14:00:35;;;;;;;1.35;1.00;;;;;;;28.96;28.24;100593.53;10470027;28;20151;-78
2022/07/12 14:05:37;;;;;;;3.35;1.10;;;;;;;29.13;28.08;100601.31;10466726;28;20056;-77
2022/07/12 14:10:39;;;;;;;3.05;1.00;;;;;;;29.63;27.02;100590.28;10468447;28;20087;-73
2022/07/12 14:15:42;;;;;;;1.52;1.00;;;;;;;29.53;27.31;100589.81;10468435;28;20048;-74
2022/07/12 14:20:44;;;;;;;1.73;1.05;;;;;;;29.33;27.02;100578.03;10465924;28;20110;-73
2022/07/12 14:25:46;;;;;;;1.50;0.95;;;;;;;29.01;27.54;100576.78;10466060;28;20083;-76
2022/07/12 14:30:48;;;;;;;1.65;1.10;;;;;;;29.05;27.91;100570.78;10464757;28;20071;-74
2022/07/12 14:35:49;;;;;;;1.38;1.00;;;;;;;29.55;27.62;100567.03;10466950;28;20488;-74
2022/07/12 14:40:51;;;;;;;2.72;1.20;;;;;;;29.58;27.49;100560.41;10466158;28;20110;-77
2022/07/12 14:45:53;;;;;;;1.13;1.02;;;;;;;29.66;26.78;100558.34;10466158;28;20048;-76
2022/07/12 14:50:55;;;;;;;1.30;1.00;;;;;;;29.77;26.63;100559.66;10467159;28;20137;-73
2022/07/12 14:55:57;;;;;;;4.30;1.20;;;;;;;29.94;26.04;100555.63;10466319;28;20252;-77
2022/07/12 15:00:58;;;;;;;4.05;1.10;;;;;;;29.74;26.10;100542.00;10464054;28;20041;-74
2022/07/12 15:06:00;;;;;;;3.38;1.20;;;;;;;29.78;26.29;100542.47;10466556;28;20171;-76
2022/07/12 15:11:02;;;;;;;3.28;1.25;;;;;;;29.88;26.62;100535.66;10465034;28;20136;-77
2022/07/12 15:16:05;;;;;;;3.25;1.20;;;;;;;29.97;26.30;100524.72;10467787;28;20507;-77
2022/07/12 15:21:06;;;;;;;3.95;1.00;;;;;;;29.82;26.46;100519.44;10461958;28;20067;-76
2022/07/12 15:26:08;;;;;;;2.53;1.02;;;;;;;29.66;26.56;100535.97;10464277;28;20725;-76
2022/07/12 15:31:10;;;;;;;1.33;1.00;;;;;;;29.75;26.69;100540.16;10455472;28;20042;-77
2022/07/12 15:36:13;;;;;;;13.48;1.30;;;;;;;29.99;26.15;100530.75;10465097;28;20407;-77
2022/07/12 15:41:16;;;;;;;3.13;1.10;;;;;;;29.98;25.50;100523.69;10464818;28;20397;-75
2022/07/12 15:46:18;;;;;;;2.13;1.02;;;;;;;29.71;26.16;100528.09;10464770;28;20323;-76
2022/07/12 15:53:25;;;;;;;2.05;1.00;;;;;;;29.88;25.40;100518.63;10449084;28;20075;-77
2022/07/12 15:56:42;;;;;;;2.10;1.10;;;;;;;29.92;24.77;100514.50;10470615;28;20124;-77
2022/07/12 16:01:44;;;;;;;2.38;1.00;;;;;;;29.83;25.34;100515.72;10471202;28;20488;-77
2022/07/12 16:06:46;;;;;;;2.58;0.98;;;;;;;29.80;25.33;100508.03;10470329;28;20477;-77
2022/07/12 16:11:48;;;;;;;3.15;1.20;;;;;;;29.68;24.95;100520.44;10469719;28;20134;-77
2022/07/12 16:16:50;;;;;;;1.98;1.00;;;;;;;29.58;25.09;100514.59;10470663;28;20076;-77
2022/07/12 16:21:53;;;;;;;5.05;1.30;;;;;;;29.36;25.13;100508.41;10469677;28;20044;-75
2022/07/12 16:26:54;;;;;;;2.60;1.00;;;;;;;29.09;25.72;100504.72;10452419;28;20052;-77
2022/07/12 16:31:56;;;;;;;3.10;1.23;;;;;;;29.00;26.36;100511.31;10470309;28;20484;-77
2022/07/12 16:37:14;;;;;;;1.00;0.90;;;;;;;28.92;26.38;100502.53;10468841;28;20048;-77
2022/07/12 16:42:16;;;;;;;5.15;1.20;;;;;;;29.00;27.11;100514.00;10469305;28;20092;-77
2022/07/12 16:47:18;;;;;;;4.05;1.13;;;;;;;29.18;26.80;100507.25;10469357;28;20403;-74
2022/07/12 16:52:20;;;;;;;1.83;1.20;;;;;;;29.21;27.02;100504.19;10466997;28;20372;-77
2022/07/12 16:57:24;;;;;;;1.48;1.10;;;;;;;29.13;27.28;100501.66;10469433;28;20131;-77
2022/07/12 17:02:26;;;;;;;2.30;1.20;;;;;;;29.11;27.60;100509.09;10468528;28;20151;-76
2022/07/12 17:07:28;;;;;;;4.78;1.50;;;;;;;29.13;27.24;100507.88;10446135;28;20407;-76
2022/07/12 17:12:30;;;;;;;5.70;1.55;;;;;;;29.14;27.58;100509.53;10468747;28;20132;-76
2022/07/12 17:17:38;;;;;;;5.45;1.40;;;;;;;29.07;27.92;100512.19;10466763;28;21264;-77
2022/07/12 17:22:40;;;;;;;3.15;1.30;;;;;;;29.02;27.70;100513.81;10465544;28;20504;-75
2022/07/12 17:27:42;;;;;;;3.08;1.10;;;;;;;29.00;27.63;100515.84;10465665;28;20165;-74
2022/07/12 17:32:47;;;;;;;2.03;1.20;;;;;;;28.90;27.68;100512.69;10462782;28;20138;-77
2022/07/12 17:37:48;;;;;;;1.67;1.27;;;;;;;28.84;27.99;100514.31;10465540;28;20440;-77
2022/07/12 17:42:51;;;;;;;2.33;1.10;;;;;;;28.83;27.81;100509.91;10451809;28;20061;-76
2022/07/12 17:47:54;;;;;;;2.28;1.10;;;;;;;28.79;27.84;100511.31;10440377;28;20545;-76
2022/07/12 17:52:57;;;;;;;1.13;1.02;;;;;;;28.62;27.80;100506.44;10456149;28;20219;-77
2022/07/12 18:03:19;;;;;;;2.97;1.27;;;;;;;27.99;28.69;100512.59;10438626;28;20056;-76
2022/07/12 18:08:21;;;;;;;2.97;1.17;;;;;;;27.85;29.08;100521.53;10460353;28;20128;-76
2022/07/12 18:18:34;;;;;;;13.35;1.52;;;;;;;27.67;30.54;100519.22;10449350;28;20056;-77
2022/07/12 18:23:42;;;;;;;4.53;1.30;;;;;;;27.61;31.45;100513.75;10462856;28;20052;-76
2022/07/12 18:28:48;;;;;;;2.80;1.30;;;;;;;27.45;31.79;100525.53;10464191;28;20044;-77
2022/07/12 18:33:51;;;;;;;3.92;1.58;;;;;;;27.35;31.33;100519.59;10465600;28;20443;-76
2022/07/12 18:38:56;;;;;;;2.42;1.20;;;;;;;27.24;31.41;100520.09;10458672;28;20634;-76
2022/07/12 18:43:58;;;;;;;3.05;1.20;;;;;;;27.14;31.91;100523.03;10444435;28;20312;-76
2022/07/12 18:49:00;;;;;;;1.88;1.23;;;;;;;26.96;32.52;100525.19;10435746;28;20685;-76
2022/07/12 18:54:02;;;;;;;2.35;1.25;;;;;;;26.86;32.34;100515.72;10460428;28;20048;-77
2022/07/12 18:59:04;;;;;;;7.38;1.20;;;;;;;26.67;32.81;100514.38;10456865;28;20059;-77
2022/07/12 19:04:06;;;;;;;3.33;1.13;;;;;;;26.55;33.33;100513.13;10450531;28;20056;-77
2022/07/12 19:09:10;;;;;;;1.77;1.20;;;;;;;26.39;34.10;100526.66;10456187;28;20052;-77
2022/07/12 19:14:13;;;;;;;4.28;1.35;;;;;;;26.20;34.78;100522.59;10454144;28;20053;-77
2022/07/12 19:19:14;;;;;;;3.40;1.20;;;;;;;25.92;35.20;100524.94;10470238;28;20514;-77
2022/07/12 19:24:17;;;;;;;2.50;1.20;;;;;;;25.62;36.16;100531.13;10471355;28;20510;-77
2022/07/12 19:29:18;;;;;;;1.98;1.23;;;;;;;25.37;36.67;100528.69;10465933;28;20049;-77
2022/07/12 19:34:20;;;;;;;5.43;1.30;;;;;;;25.05;37.35;100538.44;10460801;28;20151;-76
2022/07/12 19:39:22;;;;;;;3.95;1.27;;;;;;;24.83;37.95;100540.97;10464992;28;20110;-75
2022/07/12 19:44:24;;;;;;;2.00;1.30;;;;;;;24.62;38.60;100549.47;10449146;28;20118;-76
2022/07/12 19:49:26;;;;;;;2.65;1.40;;;;;;;24.33;39.46;100553.63;10469718;28;20088;-76
2022/07/12 19:54:27;;;;;;;2.00;1.40;;;;;;;24.03;39.94;100558.53;10439433;28;20041;-75
2022/07/12 19:59:29;;;;;;;4.20;1.40;;;;;;;23.78;40.45;100561.31;10457044;28;20048;-75
2022/07/12 20:04:31;;;;;;;4.22;1.50;;;;;;;23.61;40.78;100562.22;10466909;28;20114;-74
2022/07/12 20:09:40;;;;;;;3.15;1.33;;;;;;;23.40;41.16;100560.78;10467374;28;20052;-73
2022/07/12 20:14:42;;;;;;;2.83;1.45;;;;;;;23.25;41.31;100569.47;10471763;28;20489;-73
2022/07/12 20:19:44;;;;;;;1.98;1.33;;;;;;;23.06;42.01;100567.03;10471342;28;20519;-65
2022/07/12 20:24:46;;;;;;;2.03;1.45;;;;;;;22.89;42.72;100562.56;10469515;28;20087;-67
2022/07/12 20:29:47;;;;;;;4.85;1.55;;;;;;;22.71;42.75;100565.25;10469472;28;20076;-67
2022/07/12 20:34:49;;;;;;;2.35;1.60;;;;;;;22.59;42.90;100567.31;10463805;28;20129;-67
2022/07/12 20:39:51;;;;;;;4.90;1.70;;;;;;;22.43;43.46;100575.13;10471730;28;20131;-66
2022/07/12 20:44:52;;;;;;;3.60;1.50;;;;;;;22.31;43.73;100568.34;10468737;28;20143;-67
2022/07/12 20:49:54;;;;;;;2.70;1.50;;;;;;;22.21;43.80;100577.44;10471345;28;20141;-66
2022/07/12 20:54:56;;;;;;;4.00;1.60;;;;;;;22.01;44.35;100584.63;10471716;28;20127;-66
2022/07/12 20:59:57;;;;;;;2.22;1.60;;;;;;;21.90;44.43;100583.00;10469739;28;20080;-66
2022/07/12 21:04:59;;;;;;;2.70;1.60;;;;;;;21.74;44.45;100590.81;10452622;28;20107;-66
2022/07/12 21:10:01;;;;;;;2.20;1.70;;;;;;;21.63;44.82;100585.69;10469859;28;20154;-67
2022/07/12 21:15:03;;;;;;;3.33;1.60;;;;;;;21.54;45.00;100583.03;10470295;28;20447;-67
2022/07/12 21:20:06;;;;;;;2.47;1.60;;;;;;;21.42;45.45;100587.72;10470643;28;20040;-67
2022/07/12 21:25:08;;;;;;;3.05;1.80;;;;;;;21.35;45.66;100597.28;10466274;28;20463;-67
2022/07/12 21:30:10;;;;;;;3.67;1.90;;;;;;;21.22;46.09;100603.84;10467783;28;20121;-67
2022/07/12 21:35:12;;;;;;;7.15;1.90;;;;;;;21.00;46.53;100605.84;10466510;28;20048;-67
2022/07/12 21:40:13;;;;;;;3.50;1.80;;;;;;;20.88;46.75;100592.84;10467230;28;20052;-67
2022/07/12 21:45:15;;;;;;;3.83;1.70;;;;;;;20.77;46.93;100601.78;10467046;28;20468;-67
2022/07/12 21:50:17;;;;;;;2.20;1.63;;;;;;;20.67;46.83;100600.13;10450899;28;20512;-67
2022/07/12 21:55:22;;;;;;;5.90;1.80;;;;;;;20.49;47.41;100596.44;10466538;28;20127;-67
2022/07/12 22:00:24;;;;;;;4.63;1.90;;;;;;;20.35;48.09;100602.16;10466541;28;20052;-67
2022/07/12 22:05:26;;;;;;;4.68;2.00;;;;;;;20.20;48.57;100597.25;10466684;28;20052;-67
2022/07/12 22:10:27;;;;;;;4.13;1.92;;;;;;;20.24;48.32;100595.16;10465965;28;20056;-67
2022/07/12 22:15:29;;;;;;;5.28;1.80;;;;;;;20.32;48.19;100597.94;10466530;28;20695;-67
2022/07/12 22:20:31;;;;;;;4.13;2.00;;;;;;;20.36;48.11;100601.19;10467366;28;20076;-68
2022/07/12 22:25:33;;;;;;;3.33;1.90;;;;;;;20.32;48.41;100592.63;10464874;28;20071;-68
2022/07/12 22:30:35;;;;;;;2.95;1.70;;;;;;;20.34;48.18;100600.50;10466438;28;20052;-67
2022/07/12 22:35:37;;;;;;;4.93;1.92;;;;;;;20.29;48.41;100599.06;10466004;28;20389;-67
2022/07/12 22:40:39;;;;;;;4.32;2.00;;;;;;;20.32;48.51;100595.28;10467305;28;20123;-68
2022/07/12 22:45:41;;;;;;;3.70;2.25;;;;;;;20.34;48.38;100593.34;10448172;28;20057;-67
2022/07/12 22:56:03;;;;;;;;;;;;;;;19.88;48.93;100609.88;10466089;28;20191;-68
2022/07/12 23:01:06;;;;;;;3.45;1.80;;;;;;;20.20;48.12;100612.34;10466569;28;20007;-67
2022/07/12 23:06:08;;;;;;;4.55;1.98;;;;;;;20.16;48.42;100610.94;10464852;28;20045;-68
2022/07/12 23:11:10;;;;;;;5.72;1.98;;;;;;;20.11;48.73;100607.84;10466454;28;20045;-67
2022/07/12 23:16:12;;;;;;;3.10;2.00;;;;;;;20.15;48.77;100610.06;10465718;28;20798;-68
2022/07/12 23:21:13;;;;;;;3.47;2.15;;;;;;;20.13;48.98;100601.41;10466048;28;20151;-67
2022/07/12 23:26:15;;;;;;;3.00;2.10;;;;;;;19.99;49.19;100606.28;10462733;28;20076;-68
2022/07/12 23:31:17;;;;;;;2.63;1.80;;;;;;;20.03;49.38;100605.03;10465324;28;20045;-68
2022/07/12 23:36:19;;;;;;;4.53;2.10;;;;;;;20.05;49.21;100598.59;10463474;28;20186;-67
2022/07/12 23:41:20;;;;;;;3.72;2.13;;;;;;;19.89;49.49;100598.28;10465014;28;20198;-67
2022/07/12 23:46:22;;;;;;;3.40;2.10;;;;;;;20.07;49.14;100588.69;10463870;28;20436;-67